Terminal Aerodrome Forecast
Issued by NWS

Home | Current Version | Previous Version | Text Only | Print | Product List | Glossary On
Versions: 1 2 3 4 5 6 7 8 9 10 11 12 13 14
000
FTUS44 KMOB 212323
TAFBFM
TAF
KBFM 212323Z 2200/2224 VRB04KT P6SM FEW030 SCT250
     FM221100 02006KT P6SM SCT250
     FM221400 06006KT P6SM SCT025 SCT250
     FM221900 11007KT P6SM VCTS SCT040CB SCT250=

USA.gov is the U.S. government's official web portal to all federal, state and local government web resources and services.